TAM3719 SBGL-SBGR
Flight info
| Callsign | TAM3719 |
|---|---|
| Flight time | 0h 41m |
| Altitude | 34000 |
| Route | SIDUR UZ10 EDMUS |
| Aircraft | A20N/M-SDE2E3FGHIRWXY/LB1 |
Departure
| Time | 2026-05-01 09:41 |
|---|---|
| Airport | Rio Galeão – Tom Jobim International Airport (SBGL) |
Arrival
| Time | 2026-05-01 10:22 |
|---|---|
| Airport | São Paulo/Guarulhos–Governor André Franco Montoro International Airport (SBGR) |
| Time | Latitude | Longitude | Altitude | Speed | Heading |
|---|---|---|---|---|---|
| 2026-05-01 09:25 | -22.81240 | -43.25188 | 37 ft | 0 kts | 28° |
| 2026-05-01 09:31 | -22.81251 | -43.25194 | 37 ft | 2 kts | 28° |
| 2026-05-01 09:31 | -22.81274 | -43.25208 | 36 ft | 2 kts | 28° |
| 2026-05-01 09:32 | -22.81281 | -43.25212 | 36 ft | 1 kts | 28° |
| 2026-05-01 09:32 | -22.81298 | -43.25216 | 36 ft | 2 kts | 351° |
| 2026-05-01 09:32 | -22.81312 | -43.25210 | 36 ft | 2 kts | 326° |
| 2026-05-01 09:33 | -22.81319 | -43.25203 | 36 ft | 0 kts | 308° |
| 2026-05-01 09:33 | -22.81323 | -43.25197 | 37 ft | 0 kts | 305° |
| 2026-05-01 09:35 | -22.81317 | -43.25206 | 36 ft | 6 kts | 305° |
| 2026-05-01 09:35 | -22.81198 | -43.25342 | 31 ft | 14 kts | 331° |
| 2026-05-01 09:35 | -22.81124 | -43.25376 | 30 ft | 9 kts | 341° |
| 2026-05-01 09:36 | -22.81072 | -43.25384 | 30 ft | 7 kts | 359° |
| 2026-05-01 09:36 | -22.81017 | -43.25380 | 30 ft | 8 kts | 6° |
| 2026-05-01 09:36 | -22.80965 | -43.25394 | 30 ft | 9 kts | 309° |
| 2026-05-01 09:36 | -22.80931 | -43.25468 | 29 ft | 12 kts | 296° |
| 2026-05-01 09:37 | -22.80888 | -43.25562 | 28 ft | 14 kts | 296° |
| 2026-05-01 09:37 | -22.80723 | -43.25502 | 25 ft | 18 kts | 35° |
| 2026-05-01 09:37 | -22.80616 | -43.25420 | 26 ft | 13 kts | 35° |
| 2026-05-01 09:38 | -22.80473 | -43.25404 | 25 ft | 11 kts | 326° |
| 2026-05-01 09:38 | -22.80392 | -43.25447 | 25 ft | 13 kts | 326° |
| 2026-05-01 09:38 | -22.80348 | -43.25480 | 25 ft | 0 kts | 326° |
| 2026-05-01 09:39 | -22.80346 | -43.25481 | 25 ft | 0 kts | 326° |
| 2026-05-01 09:39 | -22.80261 | -43.25510 | 25 ft | 15 kts | 18° |
| 2026-05-01 09:39 | -22.80186 | -43.25456 | 25 ft | 10 kts | 41° |
| 2026-05-01 09:40 | -22.80161 | -43.25407 | 25 ft | 4 kts | 72° |
| 2026-05-01 09:40 | -22.80143 | -43.25344 | 25 ft | 24 kts | 74° |
| 2026-05-01 09:40 | -22.80059 | -43.25013 | 25 ft | 68 kts | 74° |
| 2026-05-01 09:41 | -22.79893 | -43.24368 | 25 ft | 109 kts | 75° |
| 2026-05-01 09:41 | -22.79363 | -43.22370 | 413 ft | 142 kts | 72° |
| 2026-05-01 09:41 | -22.79038 | -43.21345 | 655 ft | 153 kts | 72° |
| 2026-05-01 09:42 | -22.78733 | -43.20217 | 852 ft | 170 kts | 75° |
| 2026-05-01 09:42 | -22.78423 | -43.18934 | 1121 ft | 185 kts | 76° |
| 2026-05-01 09:42 | -22.77790 | -43.16016 | 1988 ft | 217 kts | 77° |
| 2026-05-01 09:43 | -22.77123 | -43.12870 | 3278 ft | 248 kts | 76° |
| 2026-05-01 09:43 | -22.76716 | -43.10970 | 3974 ft | 272 kts | 76° |
| 2026-05-01 09:43 | -22.76223 | -43.08913 | 4638 ft | 285 kts | 68° |
| 2026-05-01 09:44 | -22.73397 | -43.06519 | 6355 ft | 274 kts | 2° |
| 2026-05-01 09:44 | -22.71564 | -43.06966 | 7028 ft | 278 kts | 328° |
| 2026-05-01 09:44 | -22.70270 | -43.08439 | 7731 ft | 281 kts | 298° |
| 2026-05-01 09:45 | -22.69518 | -43.10329 | 8447 ft | 284 kts | 292° |
| 2026-05-01 09:45 | -22.67861 | -43.14060 | 9857 ft | 287 kts | 304° |
| 2026-05-01 09:45 | -22.66568 | -43.15725 | 10362 ft | 298 kts | 315° |
| 2026-05-01 09:46 | -22.64946 | -43.17271 | 10406 ft | 325 kts | 320° |
| 2026-05-01 09:46 | -22.63122 | -43.18831 | 10588 ft | 346 kts | 322° |
| 2026-05-01 09:46 | -22.61149 | -43.20446 | 10756 ft | 367 kts | 323° |
| 2026-05-01 09:46 | -22.59043 | -43.22124 | 10919 ft | 387 kts | 323° |
| 2026-05-01 09:47 | -22.56881 | -43.23894 | 11514 ft | 392 kts | 318° |
| 2026-05-01 09:47 | -22.55173 | -43.26149 | 12283 ft | 392 kts | 297° |
| 2026-05-01 09:47 | -22.54386 | -43.28952 | 12914 ft | 395 kts | 274° |
| 2026-05-01 09:47 | -22.54648 | -43.31907 | 13549 ft | 399 kts | 257° |
| 2026-05-01 09:48 | -22.55340 | -43.34808 | 14198 ft | 402 kts | 256° |
| 2026-05-01 09:48 | -22.55991 | -43.37757 | 14828 ft | 406 kts | 257° |
| 2026-05-01 09:48 | -22.56668 | -43.40718 | 15440 ft | 409 kts | 256° |
| 2026-05-01 09:48 | -22.57368 | -43.43702 | 16042 ft | 412 kts | 256° |
| 2026-05-01 09:49 | -22.58070 | -43.46712 | 16630 ft | 415 kts | 256° |
| 2026-05-01 09:49 | -22.58780 | -43.49748 | 17197 ft | 418 kts | 256° |
| 2026-05-01 09:49 | -22.59493 | -43.52802 | 17752 ft | 422 kts | 256° |
| 2026-05-01 09:49 | -22.60212 | -43.55880 | 18290 ft | 425 kts | 256° |
| 2026-05-01 09:50 | -22.60936 | -43.58986 | 18818 ft | 428 kts | 256° |
| 2026-05-01 09:50 | -22.61664 | -43.62108 | 19318 ft | 431 kts | 256° |
| 2026-05-01 09:50 | -22.62397 | -43.65255 | 19822 ft | 434 kts | 256° |
| 2026-05-01 09:50 | -22.63134 | -43.68429 | 20328 ft | 436 kts | 257° |
| 2026-05-01 09:51 | -22.63874 | -43.71616 | 20799 ft | 439 kts | 256° |
| 2026-05-01 09:51 | -22.64619 | -43.74824 | 21257 ft | 442 kts | 257° |
| 2026-05-01 09:51 | -22.65341 | -43.77940 | 21698 ft | 445 kts | 257° |
| 2026-05-01 09:51 | -22.66094 | -43.81187 | 22138 ft | 447 kts | 257° |
| 2026-05-01 09:52 | -22.66599 | -43.83367 | 22419 ft | 449 kts | 257° |
| 2026-05-01 09:52 | -22.67610 | -43.87741 | 22968 ft | 453 kts | 257° |
| 2026-05-01 09:52 | -22.68374 | -43.91048 | 23370 ft | 455 kts | 257° |
| 2026-05-01 09:52 | -22.69141 | -43.94367 | 23757 ft | 457 kts | 257° |
| 2026-05-01 09:53 | -22.69912 | -43.97712 | 24134 ft | 460 kts | 257° |
| 2026-05-01 09:53 | -22.70686 | -44.01074 | 24500 ft | 462 kts | 257° |
| 2026-05-01 09:53 | -22.71463 | -44.04449 | 24855 ft | 464 kts | 257° |
| 2026-05-01 09:53 | -22.72242 | -44.07840 | 25240 ft | 466 kts | 257° |
| 2026-05-01 09:54 | -22.73019 | -44.11223 | 25745 ft | 464 kts | 257° |
| 2026-05-01 09:54 | -22.73794 | -44.14600 | 26244 ft | 462 kts | 257° |
| 2026-05-01 09:54 | -22.74566 | -44.17968 | 26688 ft | 461 kts | 257° |
| 2026-05-01 09:54 | -22.75383 | -44.21312 | 27124 ft | 460 kts | 253° |
| 2026-05-01 09:55 | -22.76507 | -44.24560 | 27558 ft | 460 kts | 249° |
| 2026-05-01 09:55 | -22.77698 | -44.27759 | 27965 ft | 459 kts | 249° |
| 2026-05-01 09:55 | -22.78875 | -44.30958 | 28359 ft | 458 kts | 249° |
| 2026-05-01 09:55 | -22.80066 | -44.34143 | 28746 ft | 457 kts | 249° |
| 2026-05-01 09:56 | -22.81253 | -44.37320 | 29120 ft | 456 kts | 249° |
| 2026-05-01 09:56 | -22.82440 | -44.40499 | 29480 ft | 455 kts | 249° |
| 2026-05-01 09:56 | -22.83588 | -44.43574 | 29820 ft | 454 kts | 249° |
| 2026-05-01 09:56 | -22.84765 | -44.46731 | 30157 ft | 454 kts | 249° |
| 2026-05-01 09:57 | -22.85945 | -44.49896 | 30486 ft | 453 kts | 249° |
| 2026-05-01 09:57 | -22.87119 | -44.53046 | 30807 ft | 452 kts | 249° |
| 2026-05-01 09:57 | -22.88291 | -44.56196 | 31116 ft | 451 kts | 249° |
| 2026-05-01 09:57 | -22.89458 | -44.59333 | 31448 ft | 449 kts | 249° |
| 2026-05-01 09:58 | -22.90623 | -44.62466 | 31793 ft | 447 kts | 249° |
| 2026-05-01 09:58 | -22.91779 | -44.65578 | 32116 ft | 445 kts | 250° |
| 2026-05-01 09:58 | -22.92933 | -44.68692 | 32438 ft | 444 kts | 250° |
| 2026-05-01 09:58 | -22.94080 | -44.71786 | 32752 ft | 442 kts | 250° |
| 2026-05-01 09:59 | -22.95218 | -44.74857 | 33055 ft | 440 kts | 250° |
| 2026-05-01 09:59 | -22.96354 | -44.77923 | 33349 ft | 438 kts | 250° |
| 2026-05-01 09:59 | -22.97482 | -44.80970 | 33635 ft | 436 kts | 250° |
| 2026-05-01 09:59 | -22.98605 | -44.84008 | 33913 ft | 433 kts | 251° |
| 2026-05-01 10:00 | -22.99718 | -44.87015 | 34168 ft | 426 kts | 250° |
| 2026-05-01 10:00 | -23.00818 | -44.89964 | 34212 ft | 421 kts | 251° |
| 2026-05-01 10:00 | -23.03028 | -44.95905 | 34208 ft | 429 kts | 251° |
| 2026-05-01 10:01 | -23.04878 | -45.00877 | 34212 ft | 424 kts | 251° |
| 2026-05-01 10:01 | -23.07450 | -45.07769 | 34209 ft | 424 kts | 251° |
| 2026-05-01 10:02 | -23.08566 | -45.10762 | 33810 ft | 432 kts | 251° |
| 2026-05-01 10:02 | -23.09688 | -45.13768 | 33293 ft | 430 kts | 251° |
| 2026-05-01 10:02 | -23.10807 | -45.16760 | 32823 ft | 426 kts | 251° |
| 2026-05-01 10:02 | -23.11919 | -45.19725 | 32400 ft | 425 kts | 251° |
| 2026-05-01 10:03 | -23.13027 | -45.22702 | 32014 ft | 428 kts | 251° |
| 2026-05-01 10:03 | -23.14145 | -45.25709 | 31646 ft | 433 kts | 251° |
| 2026-05-01 10:03 | -23.15273 | -45.28741 | 31280 ft | 435 kts | 251° |
| 2026-05-01 10:03 | -23.16400 | -45.31773 | 30919 ft | 435 kts | 251° |
| 2026-05-01 10:04 | -23.17530 | -45.34817 | 30564 ft | 436 kts | 251° |
| 2026-05-01 10:04 | -23.18605 | -45.37784 | 30227 ft | 436 kts | 253° |
| 2026-05-01 10:04 | -23.19447 | -45.40932 | 29891 ft | 435 kts | 259° |
| 2026-05-01 10:04 | -23.20136 | -45.44131 | 29552 ft | 437 kts | 259° |
| 2026-05-01 10:05 | -23.20864 | -45.47333 | 29205 ft | 438 kts | 259° |
| 2026-05-01 10:05 | -23.21578 | -45.50543 | 28858 ft | 439 kts | 259° |
| 2026-05-01 10:05 | -23.22291 | -45.53776 | 28482 ft | 441 kts | 259° |
| 2026-05-01 10:05 | -23.23075 | -45.57008 | 27872 ft | 446 kts | 256° |
| 2026-05-01 10:06 | -23.23982 | -45.60215 | 27195 ft | 445 kts | 256° |
| 2026-05-01 10:06 | -23.24572 | -45.62348 | 26744 ft | 444 kts | 256° |
| 2026-05-01 10:06 | -23.25739 | -45.66607 | 25851 ft | 441 kts | 256° |
| 2026-05-01 10:06 | -23.26617 | -45.69792 | 25190 ft | 440 kts | 256° |
| 2026-05-01 10:07 | -23.27488 | -45.72954 | 24532 ft | 438 kts | 256° |
| 2026-05-01 10:07 | -23.28357 | -45.76111 | 23872 ft | 436 kts | 256° |
| 2026-05-01 10:07 | -23.28933 | -45.78204 | 23434 ft | 435 kts | 256° |
| 2026-05-01 10:07 | -23.30081 | -45.82380 | 22558 ft | 432 kts | 256° |
| 2026-05-01 10:08 | -23.31788 | -45.88593 | 21252 ft | 428 kts | 256° |
| 2026-05-01 10:08 | -23.32646 | -45.91686 | 20603 ft | 426 kts | 255° |
| 2026-05-01 10:08 | -23.33515 | -45.94746 | 19962 ft | 424 kts | 255° |
| 2026-05-01 10:09 | -23.34089 | -45.96771 | 19525 ft | 415 kts | 255° |
| 2026-05-01 10:09 | -23.35193 | -46.00672 | 18691 ft | 397 kts | 255° |
| 2026-05-01 10:09 | -23.35993 | -46.03498 | 18101 ft | 390 kts | 255° |
| 2026-05-01 10:09 | -23.36787 | -46.06312 | 17522 ft | 389 kts | 255° |
| 2026-05-01 10:10 | -23.37577 | -46.09109 | 16942 ft | 388 kts | 255° |
| 2026-05-01 10:10 | -23.38362 | -46.11891 | 16359 ft | 385 kts | 255° |
| 2026-05-01 10:10 | -23.39915 | -46.17400 | 15204 ft | 379 kts | 255° |
| 2026-05-01 10:11 | -23.40684 | -46.20130 | 14631 ft | 377 kts | 255° |
| 2026-05-01 10:11 | -23.41446 | -46.22837 | 14063 ft | 374 kts | 255° |
| 2026-05-01 10:11 | -23.42203 | -46.25528 | 13498 ft | 371 kts | 255° |
| 2026-05-01 10:11 | -23.42855 | -46.28225 | 13022 ft | 365 kts | 264° |
| 2026-05-01 10:12 | -23.42709 | -46.30938 | 12706 ft | 360 kts | 288° |
| 2026-05-01 10:12 | -23.42079 | -46.32609 | 12547 ft | 359 kts | 299° |
| 2026-05-01 10:12 | -23.39058 | -46.38013 | 11971 ft | 357 kts | 303° |
| 2026-05-01 10:13 | -23.37718 | -46.40273 | 11755 ft | 356 kts | 304° |
| 2026-05-01 10:13 | -23.36369 | -46.42521 | 11555 ft | 356 kts | 304° |
| 2026-05-01 10:13 | -23.35018 | -46.44766 | 11365 ft | 355 kts | 304° |
| 2026-05-01 10:14 | -23.32303 | -46.49260 | 10924 ft | 354 kts | 304° |
| 2026-05-01 10:14 | -23.30960 | -46.51482 | 10738 ft | 345 kts | 304° |
| 2026-05-01 10:14 | -23.29669 | -46.53616 | 10557 ft | 332 kts | 304° |
| 2026-05-01 10:14 | -23.28623 | -46.55838 | 10092 ft | 333 kts | 287° |
| 2026-05-01 10:15 | -23.28505 | -46.58324 | 9695 ft | 334 kts | 259° |
| 2026-05-01 10:15 | -23.29492 | -46.60568 | 9334 ft | 333 kts | 230° |
| 2026-05-01 10:15 | -23.31244 | -46.62178 | 8956 ft | 330 kts | 214° |
| 2026-05-01 10:15 | -23.33099 | -46.63547 | 8503 ft | 314 kts | 214° |
| 2026-05-01 10:16 | -23.34842 | -46.64855 | 8069 ft | 298 kts | 214° |
| 2026-05-01 10:16 | -23.36533 | -46.66085 | 7661 ft | 289 kts | 213° |
| 2026-05-01 10:16 | -23.39791 | -46.68430 | 6749 ft | 285 kts | 213° |
| 2026-05-01 10:17 | -23.41433 | -46.69602 | 6317 ft | 282 kts | 212° |
| 2026-05-01 10:17 | -23.44945 | -46.70406 | 5715 ft | 248 kts | 159° |
| 2026-05-01 10:17 | -23.46495 | -46.69750 | 5477 ft | 233 kts | 158° |
| 2026-05-01 10:18 | -23.48396 | -46.67503 | 5239 ft | 197 kts | 89° |
| 2026-05-01 10:18 | -23.48187 | -46.66030 | 5187 ft | 201 kts | 78° |
| 2026-05-01 10:18 | -23.47904 | -46.64542 | 5086 ft | 199 kts | 78° |
| 2026-05-01 10:19 | -23.47576 | -46.63100 | 4906 ft | 187 kts | 77° |
| 2026-05-01 10:19 | -23.47329 | -46.61797 | 4831 ft | 164 kts | 79° |
| 2026-05-01 10:19 | -23.47072 | -46.60626 | 4719 ft | 153 kts | 75° |
| 2026-05-01 10:20 | -23.46495 | -46.58411 | 4309 ft | 151 kts | 75° |
| 2026-05-01 10:20 | -23.46202 | -46.57313 | 4104 ft | 150 kts | 74° |
| 2026-05-01 10:20 | -23.45908 | -46.56225 | 3899 ft | 150 kts | 74° |
| 2026-05-01 10:20 | -23.45612 | -46.55127 | 3697 ft | 151 kts | 75° |
| 2026-05-01 10:21 | -23.45319 | -46.54032 | 3492 ft | 151 kts | 75° |
| 2026-05-01 10:21 | -23.44728 | -46.51845 | 3075 ft | 151 kts | 75° |
| 2026-05-01 10:21 | -23.44443 | -46.50751 | 2853 ft | 150 kts | 75° |
| 2026-05-01 10:22 | -23.43836 | -46.48603 | 2465 ft | 137 kts | 77° |
| 2026-05-01 10:22 | -23.43601 | -46.47668 | 2470 ft | 27 kts | 75° |
| 2026-05-01 10:23 | -23.43569 | -46.47541 | 2470 ft | 25 kts | 74° |
| 2026-05-01 10:23 | -23.43445 | -46.47088 | 2466 ft | 26 kts | 68° |
| 2026-05-01 10:23 | -23.43358 | -46.46926 | 2460 ft | 24 kts | 54° |
| 2026-05-01 10:24 | -23.43147 | -46.46713 | 2450 ft | 17 kts | 17° |
| 2026-05-01 10:24 | -23.42952 | -46.46762 | 2446 ft | 11 kts | 343° |
| 2026-05-01 10:25 | -23.42777 | -46.46836 | 2443 ft | 11 kts | 293° |
| 2026-05-01 10:25 | -23.42819 | -46.47040 | 2442 ft | 15 kts | 252° |
| 2026-05-01 10:26 | -23.42852 | -46.47162 | 2443 ft | 17 kts | 254° |
| 2026-05-01 10:26 | -23.42876 | -46.47250 | 2443 ft | 18 kts | 253° |
| 2026-05-01 10:26 | -23.42970 | -46.47600 | 2445 ft | 22 kts | 255° |
| 2026-05-01 10:27 | -23.42956 | -46.47827 | 2446 ft | 8 kts | 351° |
| 2026-05-01 10:27 | -23.42853 | -46.47859 | 2446 ft | 4 kts | 325° |
| 2026-05-01 10:28 | -23.42778 | -46.47884 | 2447 ft | 14 kts | 349° |
| 2026-05-01 10:28 | -23.42686 | -46.47911 | 2447 ft | 5 kts | 285° |
| 2026-05-01 10:28 | -23.42685 | -46.47944 | 2448 ft | 1 kts | 265° |
| 2026-05-01 10:29 | -23.42686 | -46.47960 | 2448 ft | 0 kts | 264° |